sensor_id;sensor_type;location;lat;lon;timestamp;pressure;altitude;pressure_sealevel;temperature;humidity
65376;BME280;51976;47.332;9.404;2023-03-15T00:01:59;92144.75;;;2.37;74.37
65376;BME280;51976;47.332;9.404;2023-03-15T00:04:24;92128.03;;;2.20;73.94
65376;BME280;51976;47.332;9.404;2023-03-15T00:06:52;92142.03;;;2.32;74.18
65376;BME280;51976;47.332;9.404;2023-03-15T00:09:18;92139.59;;;2.30;74.02
65376;BME280;51976;47.332;9.404;2023-03-15T00:11:44;92146.53;;;2.31;73.81
65376;BME280;51976;47.332;9.404;2023-03-15T00:14:09;92135.97;;;2.36;73.74
65376;BME280;51976;47.332;9.404;2023-03-15T00:16:35;92145.34;;;2.44;73.58
65376;BME280;51976;47.332;9.404;2023-03-15T00:19:01;92140.53;;;2.41;72.70
65376;BME280;51976;47.332;9.404;2023-03-15T00:21:26;92148.03;;;2.44;72.98
65376;BME280;51976;47.332;9.404;2023-03-15T00:23:54;92165.22;;;2.36;73.57
65376;BME280;51976;47.332;9.404;2023-03-15T00:26:20;92169.09;;;2.29;73.82
65376;BME280;51976;47.332;9.404;2023-03-15T00:28:46;92169.09;;;2.29;74.37
65376;BME280;51976;47.332;9.404;2023-03-15T00:31:16;92166.28;;;2.14;74.73
65376;BME280;51976;47.332;9.404;2023-03-15T00:33:43;92182.19;;;1.92;75.24
65376;BME280;51976;47.332;9.404;2023-03-15T00:36:09;92196.50;;;1.86;76.08
65376;BME280;51976;47.332;9.404;2023-03-15T00:38:37;92224.56;;;1.60;76.57
65376;BME280;51976;47.332;9.404;2023-03-15T00:41:10;92207.00;;;1.59;77.05
65376;BME280;51976;47.332;9.404;2023-03-15T00:43:35;92242.41;;;1.64;77.13
65376;BME280;51976;47.332;9.404;2023-03-15T00:46:01;92253.94;;;1.37;77.74
65376;BME280;51976;47.332;9.404;2023-03-15T00:48:27;92270.41;;;1.22;77.97
65376;BME280;51976;47.332;9.404;2023-03-15T00:51:12;92269.50;;;1.16;77.01
65376;BME280;51976;47.332;9.404;2023-03-15T00:53:40;92275.53;;;1.12;75.87
65376;BME280;51976;47.332;9.404;2023-03-15T00:56:08;92275.00;;;1.26;74.54
65376;BME280;51976;47.332;9.404;2023-03-15T00:58:34;92276.84;;;1.43;74.07
65376;BME280;51976;47.332;9.404;2023-03-15T01:01:04;92278.63;;;1.54;73.15
65376;BME280;51976;47.332;9.404;2023-03-15T01:03:30;92243.94;;;1.44;72.62
65376;BME280;51976;47.332;9.404;2023-03-15T01:05:55;92254.94;;;1.69;72.37
65376;BME280;51976;47.332;9.404;2023-03-15T01:08:20;92277.03;;;1.86;72.15
65376;BME280;51976;47.332;9.404;2023-03-15T01:10:48;92275.09;;;1.65;73.20
65376;BME280;51976;47.332;9.404;2023-03-15T01:13:13;92275.41;;;1.68;72.91
65376;BME280;51976;47.332;9.404;2023-03-15T01:15:39;92278.31;;;1.67;72.91
65376;BME280;51976;47.332;9.404;2023-03-15T01:18:04;92279.13;;;1.51;73.48
65376;BME280;51976;47.332;9.404;2023-03-15T01:20:30;92300.69;;;1.54;71.90
65376;BME280;51976;47.332;9.404;2023-03-15T01:22:55;92314.53;;;1.56;72.88
65376;BME280;51976;47.332;9.404;2023-03-15T01:25:20;92315.09;;;1.75;73.09
65376;BME280;51976;47.332;9.404;2023-03-15T01:27:46;92304.63;;;1.68;72.80
65376;BME280;51976;47.332;9.404;2023-03-15T01:30:11;92317.09;;;1.68;72.37
65376;BME280;51976;47.332;9.404;2023-03-15T01:32:37;92313.25;;;1.76;71.90
65376;BME280;51976;47.332;9.404;2023-03-15T01:35:02;92296.34;;;1.48;71.75
65376;BME280;51976;47.332;9.404;2023-03-15T01:37:28;92318.47;;;1.54;71.46
65376;BME280;51976;47.332;9.404;2023-03-15T01:39:53;92322.28;;;1.58;70.75
65376;BME280;51976;47.332;9.404;2023-03-15T01:42:19;92320.16;;;1.43;71.09
65376;BME280;51976;47.332;9.404;2023-03-15T01:44:55;92341.72;;;1.47;71.73
65376;BME280;51976;47.332;9.404;2023-03-15T01:47:21;92333.19;;;1.45;71.37
65376;BME280;51976;47.332;9.404;2023-03-15T01:50:05;92339.41;;;1.50;70.54
65376;BME280;51976;47.332;9.404;2023-03-15T01:52:34;92344.28;;;1.42;70.07
65376;BME280;51976;47.332;9.404;2023-03-15T01:55:06;92359.28;;;1.48;69.35
65376;BME280;51976;47.332;9.404;2023-03-15T01:57:37;92368.44;;;1.40;68.70
65376;BME280;51976;47.332;9.404;2023-03-15T02:00:10;92366.00;;;1.39;68.86
65376;BME280;51976;47.332;9.404;2023-03-15T02:02:51;92372.13;;;1.39;68.77
65376;BME280;51976;47.332;9.404;2023-03-15T02:05:21;92381.00;;;1.45;69.35
65376;BME280;51976;47.332;9.404;2023-03-15T02:07:48;92380.59;;;1.36;70.37
65376;BME280;51976;47.332;9.404;2023-03-15T02:10:36;92374.22;;;1.37;70.93
65376;BME280;51976;47.332;9.404;2023-03-15T02:13:03;92378.69;;;1.48;69.76
65376;BME280;51976;47.332;9.404;2023-03-15T02:15:29;92385.84;;;1.48;68.25
65376;BME280;51976;47.332;9.404;2023-03-15T02:17:55;92386.06;;;1.46;68.72
65376;BME280;51976;47.332;9.404;2023-03-15T02:20:52;92390.34;;;1.47;69.33
65376;BME280;51976;47.332;9.404;2023-03-15T02:23:13;92389.88;;;1.50;68.89
65376;BME280;51976;47.332;9.404;2023-03-15T02:26:07;92380.06;;;1.67;67.80
65376;BME280;51976;47.332;9.404;2023-03-15T02:28:32;92378.41;;;1.61;67.09
65376;BME280;51976;47.332;9.404;2023-03-15T02:30:58;92358.94;;;1.44;67.00
65376;BME280;51976;47.332;9.404;2023-03-15T02:33:30;92375.81;;;1.38;67.23
65376;BME280;51976;47.332;9.404;2023-03-15T02:36:18;92400.03;;;1.53;67.42
65376;BME280;51976;47.332;9.404;2023-03-15T02:38:45;92402.13;;;1.51;68.19
65376;BME280;51976;47.332;9.404;2023-03-15T02:41:12;92409.06;;;1.41;67.83
65376;BME280;51976;47.332;9.404;2023-03-15T02:43:39;92402.69;;;1.25;67.12
65376;BME280;51976;47.332;9.404;2023-03-15T02:46:06;92393.63;;;1.09;66.85
65376;BME280;51976;47.332;9.404;2023-03-15T02:48:33;92423.63;;;1.38;67.51
65376;BME280;51976;47.332;9.404;2023-03-15T02:50:59;92432.59;;;1.20;67.94
65376;BME280;51976;47.332;9.404;2023-03-15T02:53:28;92434.31;;;1.15;68.45
65376;BME280;51976;47.332;9.404;2023-03-15T02:55:53;92448.00;;;0.95;68.35
65376;BME280;51976;47.332;9.404;2023-03-15T02:58:18;92430.47;;;0.82;69.29
65376;BME280;51976;47.332;9.404;2023-03-15T03:00:44;92452.03;;;1.09;69.07
65376;BME280;51976;47.332;9.404;2023-03-15T03:03:09;92454.91;;;1.08;68.32
65376;BME280;51976;47.332;9.404;2023-03-15T03:05:35;92456.31;;;0.98;68.45
65376;BME280;51976;47.332;9.404;2023-03-15T03:08:01;92468.53;;;0.99;67.47
65376;BME280;51976;47.332;9.404;2023-03-15T03:10:27;92477.53;;;0.87;67.69
65376;BME280;51976;47.332;9.404;2023-03-15T03:12:52;92479.97;;;0.88;67.70
65376;BME280;51976;47.332;9.404;2023-03-15T03:15:19;92475.91;;;0.97;67.60
65376;BME280;51976;47.332;9.404;2023-03-15T03:17:45;92459.09;;;0.68;67.94
65376;BME280;51976;47.332;9.404;2023-03-15T03:20:11;92486.41;;;0.92;67.90
65376;BME280;51976;47.332;9.404;2023-03-15T03:22:40;92466.50;;;0.78;67.69
65376;BME280;51976;47.332;9.404;2023-03-15T03:25:07;92476.38;;;0.94;66.51
65376;BME280;51976;47.332;9.404;2023-03-15T03:27:34;92494.63;;;0.67;67.96
65376;BME280;51976;47.332;9.404;2023-03-15T03:30:02;92497.75;;;0.76;67.54
65376;BME280;51976;47.332;9.404;2023-03-15T03:32:28;92509.97;;;0.77;67.82
65376;BME280;51976;47.332;9.404;2023-03-15T03:34:53;92509.75;;;0.79;68.04
65376;BME280;51976;47.332;9.404;2023-03-15T03:37:19;92499.81;;;0.51;68.75
65376;BME280;51976;47.332;9.404;2023-03-15T03:39:45;92487.34;;;0.63;67.98
65376;BME280;51976;47.332;9.404;2023-03-15T03:42:11;92501.06;;;0.60;68.63
65376;BME280;51976;47.332;9.404;2023-03-15T03:44:36;92491.25;;;0.37;68.89
65376;BME280;51976;47.332;9.404;2023-03-15T03:47:02;92515.38;;;0.47;68.98
65376;BME280;51976;47.332;9.404;2023-03-15T03:49:28;92505.56;;;0.48;69.34
65376;BME280;51976;47.332;9.404;2023-03-15T03:51:53;92501.88;;;0.25;69.88
65376;BME280;51976;47.332;9.404;2023-03-15T03:54:18;92535.56;;;0.48;69.83
65376;BME280;51976;47.332;9.404;2023-03-15T03:56:47;92540.00;;;0.24;69.88
65376;BME280;51976;47.332;9.404;2023-03-15T03:59:13;92544.16;;;0.20;70.71
65376;BME280;51976;47.332;9.404;2023-03-15T04:01:38;92542.09;;;0.22;70.26
65376;BME280;51976;47.332;9.404;2023-03-15T04:04:04;92554.53;;;0.33;70.90
65376;BME280;51976;47.332;9.404;2023-03-15T04:06:29;92553.41;;;0.41;70.48
65376;BME280;51976;47.332;9.404;2023-03-15T04:08:55;92559.19;;;0.50;70.50
65376;BME280;51976;47.332;9.404;2023-03-15T04:11:21;92558.16;;;0.62;70.32
65376;BME280;51976;47.332;9.404;2023-03-15T04:13:51;92554.25;;;0.65;69.78
65376;BME280;51976;47.332;9.404;2023-03-15T04:16:18;92549.59;;;0.37;69.85
65376;BME280;51976;47.332;9.404;2023-03-15T04:18:43;92570.13;;;0.42;69.87
65376;BME280;51976;47.332;9.404;2023-03-15T04:21:08;92557.72;;;0.54;69.36
65376;BME280;51976;47.332;9.404;2023-03-15T04:23:35;92534.41;;;0.44;69.79
65376;BME280;51976;47.332;9.404;2023-03-15T04:26:02;92577.66;;;0.68;69.98
65376;BME280;51976;47.332;9.404;2023-03-15T04:28:27;92584.00;;;0.67;69.40
65376;BME280;51976;47.332;9.404;2023-03-15T04:30:54;92568.44;;;0.82;68.74
65376;BME280;51976;47.332;9.404;2023-03-15T04:33:23;92572.16;;;0.81;69.10
65376;BME280;51976;47.332;9.404;2023-03-15T04:35:48;92581.25;;;0.74;68.71
65376;BME280;51976;47.332;9.404;2023-03-15T04:38:16;92583.34;;;0.95;68.24
65376;BME280;51976;47.332;9.404;2023-03-15T04:40:42;92590.97;;;1.26;67.30
65376;BME280;51976;47.332;9.404;2023-03-15T04:43:07;92584.97;;;1.08;67.01
65376;BME280;51976;47.332;9.404;2023-03-15T04:45:33;92599.50;;;1.17;67.48
65376;BME280;51976;47.332;9.404;2023-03-15T04:47:59;92600.78;;;1.26;67.19
65376;BME280;51976;47.332;9.404;2023-03-15T04:50:25;92598.13;;;1.26;67.25
65376;BME280;51976;47.332;9.404;2023-03-15T04:52:51;92606.66;;;1.28;67.30
65376;BME280;51976;47.332;9.404;2023-03-15T04:55:16;92593.28;;;1.23;66.66
65376;BME280;51976;47.332;9.404;2023-03-15T04:57:42;92607.81;;;1.32;65.91
65376;BME280;51976;47.332;9.404;2023-03-15T05:00:08;92603.22;;;1.27;65.94
65376;BME280;51976;47.332;9.404;2023-03-15T05:02:35;92615.09;;;1.37;65.87
65376;BME280;51976;47.332;9.404;2023-03-15T05:05:04;92611.84;;;1.11;66.63
65376;BME280;51976;47.332;9.404;2023-03-15T05:07:31;92616.56;;;0.86;67.28
65376;BME280;51976;47.332;9.404;2023-03-15T05:09:57;92614.63;;;0.81;67.49
65376;BME280;51976;47.332;9.404;2023-03-15T05:12:22;92624.69;;;0.61;68.32
65376;BME280;51976;47.332;9.404;2023-03-15T05:14:48;92611.56;;;0.66;68.80
65376;BME280;51976;47.332;9.404;2023-03-15T05:17:14;92617.47;;;0.68;68.51
65376;BME280;51976;47.332;9.404;2023-03-15T05:19:39;92624.28;;;0.87;68.11
65376;BME280;51976;47.332;9.404;2023-03-15T05:22:07;92626.38;;;0.85;67.84
65376;BME280;51976;47.332;9.404;2023-03-15T05:24:32;92630.28;;;0.71;67.66
65376;BME280;51976;47.332;9.404;2023-03-15T05:26:57;92631.44;;;0.87;67.25
65376;BME280;51976;47.332;9.404;2023-03-15T05:29:23;92646.56;;;0.86;66.92
65376;BME280;51976;47.332;9.404;2023-03-15T05:31:49;92650.25;;;0.44;67.69
65376;BME280;51976;47.332;9.404;2023-03-15T05:34:17;92638.63;;;0.45;66.91
65376;BME280;51976;47.332;9.404;2023-03-15T05:36:42;92661.59;;;0.51;66.54
65376;BME280;51976;47.332;9.404;2023-03-15T05:39:08;92661.97;;;0.54;66.42
65376;BME280;51976;47.332;9.404;2023-03-15T05:41:33;92641.72;;;0.42;66.77
65376;BME280;51976;47.332;9.404;2023-03-15T05:43:59;92663.31;;;0.57;66.81
65376;BME280;51976;47.332;9.404;2023-03-15T05:46:24;92645.81;;;0.26;67.07
65376;BME280;51976;47.332;9.404;2023-03-15T05:48:50;92670.94;;;0.53;67.24
65376;BME280;51976;47.332;9.404;2023-03-15T05:51:15;92673.34;;;0.55;67.46
65376;BME280;51976;47.332;9.404;2023-03-15T05:53:41;92676.59;;;0.57;67.38
65376;BME280;51976;47.332;9.404;2023-03-15T05:56:07;92652.72;;;0.57;66.96
65376;BME280;51976;47.332;9.404;2023-03-15T05:58:33;92656.28;;;0.51;66.62
65376;BME280;51976;47.332;9.404;2023-03-15T06:00:58;92681.88;;;0.57;66.96
65376;BME280;51976;47.332;9.404;2023-03-15T06:03:26;92673.72;;;0.58;66.80
65376;BME280;51976;47.332;9.404;2023-03-15T06:05:51;92676.34;;;0.58;66.80
65376;BME280;51976;47.332;9.404;2023-03-15T06:08:16;92684.69;;;0.62;66.28
65376;BME280;51976;47.332;9.404;2023-03-15T06:10:42;92685.03;;;0.65;66.12
65376;BME280;51976;47.332;9.404;2023-03-15T06:13:07;92677.97;;;0.48;66.07
65376;BME280;51976;47.332;9.404;2023-03-15T06:15:33;92689.00;;;0.45;66.11
65376;BME280;51976;47.332;9.404;2023-03-15T06:17:58;92689.06;;;0.26;66.68
65376;BME280;51976;47.332;9.404;2023-03-15T06:20:23;92694.38;;;0.38;67.03
65376;BME280;51976;47.332;9.404;2023-03-15T06:22:49;92682.66;;;0.46;66.60
65376;BME280;51976;47.332;9.404;2023-03-15T06:25:14;92696.19;;;0.56;66.31
65376;BME280;51976;47.332;9.404;2023-03-15T06:27:39;92703.66;;;0.47;66.74
65376;BME280;51976;47.332;9.404;2023-03-15T06:30:05;92697.91;;;0.50;66.71
65376;BME280;51976;47.332;9.404;2023-03-15T06:32:31;92705.38;;;0.42;66.99
65376;BME280;51976;47.332;9.404;2023-03-15T06:34:56;92706.47;;;0.34;67.37
65376;BME280;51976;47.332;9.404;2023-03-15T06:37:22;92710.03;;;0.10;67.00
65376;BME280;51976;47.332;9.404;2023-03-15T06:39:47;92703.78;;;0.22;66.63
65376;BME280;51976;47.332;9.404;2023-03-15T06:42:13;92707.06;;;0.36;66.33
65376;BME280;51976;47.332;9.404;2023-03-15T06:44:39;92705.28;;;0.30;66.59
65376;BME280;51976;47.332;9.404;2023-03-15T06:47:05;92692.09;;;-0.25;67.33
65376;BME280;51976;47.332;9.404;2023-03-15T06:49:30;92717.97;;;-0.27;68.20
65376;BME280;51976;47.332;9.404;2023-03-15T06:51:56;92711.75;;;-0.14;68.53
65376;BME280;51976;47.332;9.404;2023-03-15T06:54:22;92714.41;;;-0.14;68.43
65376;BME280;51976;47.332;9.404;2023-03-15T06:56:47;92708.72;;;-0.36;69.45
65376;BME280;51976;47.332;9.404;2023-03-15T06:59:13;92712.22;;;0.31;68.42
65376;BME280;51976;47.332;9.404;2023-03-15T07:01:39;92723.59;;;0.02;68.74
65376;BME280;51976;47.332;9.404;2023-03-15T07:04:04;92727.47;;;-0.19;68.75
65376;BME280;51976;47.332;9.404;2023-03-15T07:06:30;92719.84;;;-0.27;68.98
65376;BME280;51976;47.332;9.404;2023-03-15T07:08:56;92702.91;;;-0.08;68.59
65376;BME280;51976;47.332;9.404;2023-03-15T07:11:21;92734.13;;;-0.28;68.67
65376;BME280;51976;47.332;9.404;2023-03-15T07:13:46;92720.56;;;-0.20;68.40
65376;BME280;51976;47.332;9.404;2023-03-15T07:16:12;92726.75;;;0.10;67.33
65376;BME280;51976;47.332;9.404;2023-03-15T07:18:37;92720.53;;;0.34;65.73
65376;BME280;51976;47.332;9.404;2023-03-15T07:21:03;92724.88;;;0.77;65.29
65376;BME280;51976;47.332;9.404;2023-03-15T07:23:29;92730.75;;;1.21;64.38
65376;BME280;51976;47.332;9.404;2023-03-15T07:25:55;92731.78;;;1.20;63.11
65376;BME280;51976;47.332;9.404;2023-03-15T07:28:21;92725.94;;;1.29;63.06
65376;BME280;51976;47.332;9.404;2023-03-15T07:30:57;92735.91;;;1.57;62.34
65376;BME280;51976;47.332;9.404;2023-03-15T07:33:24;92716.84;;;1.84;62.03
65376;BME280;51976;47.332;9.404;2023-03-15T07:35:50;92721.44;;;1.77;61.03
65376;BME280;51976;47.332;9.404;2023-03-15T07:38:16;92721.78;;;1.92;61.43
65376;BME280;51976;47.332;9.404;2023-03-15T07:40:41;92733.28;;;2.32;60.87
65376;BME280;51976;47.332;9.404;2023-03-15T07:43:07;92733.56;;;1.96;61.10
65376;BME280;51976;47.332;9.404;2023-03-15T07:45:32;92746.78;;;1.91;61.19
65376;BME280;51976;47.332;9.404;2023-03-15T07:47:59;92745.63;;;1.87;61.38
65376;BME280;51976;47.332;9.404;2023-03-15T07:50:25;92743.94;;;2.32;60.16
65376;BME280;51976;47.332;9.404;2023-03-15T07:52:50;92730.94;;;2.76;59.09
65376;BME280;51976;47.332;9.404;2023-03-15T07:55:16;92738.88;;;2.71;59.06
65376;BME280;51976;47.332;9.404;2023-03-15T07:57:41;92743.97;;;2.09;60.00
65376;BME280;51976;47.332;9.404;2023-03-15T08:00:07;92730.34;;;1.47;60.38
65376;BME280;51976;47.332;9.404;2023-03-15T08:02:33;92741.53;;;1.49;60.69
65376;BME280;51976;47.332;9.404;2023-03-15T08:04:58;92744.66;;;2.04;59.76
65376;BME280;51976;47.332;9.404;2023-03-15T08:07:24;92728.69;;;2.68;58.82
65376;BME280;51976;47.332;9.404;2023-03-15T08:09:49;92726.31;;;2.83;57.38
65376;BME280;51976;47.332;9.404;2023-03-15T08:12:15;92744.00;;;2.89;57.45
65376;BME280;51976;47.332;9.404;2023-03-15T08:14:40;92744.31;;;3.21;56.70
65376;BME280;51976;47.332;9.404;2023-03-15T08:17:06;92747.72;;;3.67;55.80
65376;BME280;51976;47.332;9.404;2023-03-15T08:19:36;92744.56;;;3.36;55.87
65376;BME280;51976;47.332;9.404;2023-03-15T08:22:01;92738.56;;;3.29;55.84
65376;BME280;51976;47.332;9.404;2023-03-15T08:24:27;92735.50;;;3.88;54.46
65376;BME280;51976;47.332;9.404;2023-03-15T08:26:52;92745.25;;;3.77;54.73
65376;BME280;51976;47.332;9.404;2023-03-15T08:29:18;92734.88;;;3.97;54.91
65376;BME280;51976;47.332;9.404;2023-03-15T08:31:43;92739.16;;;2.75;55.50
65376;BME280;51976;47.332;9.404;2023-03-15T08:34:08;92744.56;;;2.51;56.49
65376;BME280;51976;47.332;9.404;2023-03-15T08:36:34;92726.13;;;3.18;55.41
65376;BME280;51976;47.332;9.404;2023-03-15T08:38:59;92744.50;;;3.48;54.83
65376;BME280;51976;47.332;9.404;2023-03-15T08:41:24;92710.13;;;4.02;54.27
65376;BME280;51976;47.332;9.404;2023-03-15T08:43:50;92738.47;;;4.25;53.82
65376;BME280;51976;47.332;9.404;2023-03-15T08:46:15;92723.91;;;4.54;53.52
65376;BME280;51976;47.332;9.404;2023-03-15T08:48:41;92734.44;;;4.44;53.46
65376;BME280;51976;47.332;9.404;2023-03-15T08:51:07;92740.38;;;3.91;54.60
65376;BME280;51976;47.332;9.404;2023-03-15T08:53:33;92735.56;;;4.70;53.27
65376;BME280;51976;47.332;9.404;2023-03-15T08:55:59;92737.91;;;4.23;53.62
65376;BME280;51976;47.332;9.404;2023-03-15T08:58:25;92740.16;;;4.14;52.82
65376;BME280;51976;47.332;9.404;2023-03-15T09:00:51;92736.13;;;4.28;53.06
65376;BME280;51976;47.332;9.404;2023-03-15T09:03:17;92737.47;;;4.96;51.66
65376;BME280;51976;47.332;9.404;2023-03-15T09:05:43;92729.56;;;5.33;50.49
65376;BME280;51976;47.332;9.404;2023-03-15T09:08:08;92733.94;;;5.71;51.05
65376;BME280;51976;47.332;9.404;2023-03-15T09:10:34;92742.03;;;5.23;50.30
65376;BME280;51976;47.332;9.404;2023-03-15T09:13:02;92749.69;;;5.14;50.00
65376;BME280;51976;47.332;9.404;2023-03-15T09:15:27;92739.09;;;5.51;49.85
65376;BME280;51976;47.332;9.404;2023-03-15T09:17:53;92740.63;;;6.06;48.96
65376;BME280;51976;47.332;9.404;2023-03-15T09:20:19;92741.47;;;5.79;48.34
65376;BME280;51976;47.332;9.404;2023-03-15T09:22:52;92745.03;;;5.04;50.42
65376;BME280;51976;47.332;9.404;2023-03-15T09:25:18;92739.72;;;5.31;51.37
65376;BME280;51976;47.332;9.404;2023-03-15T09:27:47;92739.97;;;5.89;49.47
65376;BME280;51976;47.332;9.404;2023-03-15T09:30:13;92738.72;;;5.69;50.19
65376;BME280;51976;47.332;9.404;2023-03-15T09:32:38;92740.97;;;6.15;48.36
65376;BME280;51976;47.332;9.404;2023-03-15T09:35:07;92744.13;;;6.06;48.93
65376;BME280;51976;47.332;9.404;2023-03-15T09:37:34;92745.22;;;6.10;46.45
65376;BME280;51976;47.332;9.404;2023-03-15T09:40:00;92749.81;;;6.15;46.66
65376;BME280;51976;47.332;9.404;2023-03-15T09:42:53;92748.97;;;6.52;46.25
65376;BME280;51976;47.332;9.404;2023-03-15T09:45:29;92738.75;;;7.06;45.09
65376;BME280;51976;47.332;9.404;2023-03-15T09:48:04;92758.03;;;5.76;45.03
65376;BME280;51976;47.332;9.404;2023-03-15T09:50:33;92733.13;;;5.71;45.81
65376;BME280;51976;47.332;9.404;2023-03-15T09:53:10;92757.72;;;5.41;46.04
65376;BME280;51976;47.332;9.404;2023-03-15T09:55:38;92760.16;;;5.21;46.19
65376;BME280;51976;47.332;9.404;2023-03-15T09:58:10;92752.22;;;4.55;47.27
65376;BME280;51976;47.332;9.404;2023-03-15T10:00:43;92766.75;;;4.64;48.37
65376;BME280;51976;47.332;9.404;2023-03-15T10:03:26;92766.06;;;5.44;47.13
65376;BME280;51976;47.332;9.404;2023-03-15T10:05:56;92758.41;;;5.58;46.89
65376;BME280;51976;47.332;9.404;2023-03-15T10:08:24;92755.56;;;5.38;46.33
65376;BME280;51976;47.332;9.404;2023-03-15T10:10:59;92769.47;;;5.40;46.59
65376;BME280;51976;47.332;9.404;2023-03-15T10:13:39;92773.34;;;6.13;45.90
65376;BME280;51976;47.332;9.404;2023-03-15T10:16:27;92761.69;;;6.34;45.71
65376;BME280;51976;47.332;9.404;2023-03-15T10:19:10;92764.16;;;6.04;46.11
65376;BME280;51976;47.332;9.404;2023-03-15T10:21:51;92772.94;;;5.67;46.25
65376;BME280;51976;47.332;9.404;2023-03-15T10:24:27;92770.41;;;5.56;46.19
65376;BME280;51976;47.332;9.404;2023-03-15T10:26:58;92757.34;;;5.05;46.48
65376;BME280;51976;47.332;9.404;2023-03-15T10:29:25;92743.63;;;5.83;46.01
65376;BME280;51976;47.332;9.404;2023-03-15T10:31:53;92768.16;;;5.74;46.43
65376;BME280;51976;47.332;9.404;2023-03-15T10:34:18;92764.66;;;5.96;45.51
65376;BME280;51976;47.332;9.404;2023-03-15T10:36:49;92755.66;;;5.80;46.76
65376;BME280;51976;47.332;9.404;2023-03-15T10:39:18;92758.84;;;5.50;45.88
65376;BME280;51976;47.332;9.404;2023-03-15T10:41:47;92750.69;;;5.62;47.13
65376;BME280;51976;47.332;9.404;2023-03-15T10:44:24;92760.38;;;5.95;46.88
65376;BME280;51976;47.332;9.404;2023-03-15T10:47:02;92746.66;;;5.05;47.24
65376;BME280;51976;47.332;9.404;2023-03-15T10:49:38;92765.44;;;5.37;47.25
65376;BME280;51976;47.332;9.404;2023-03-15T10:52:04;92754.69;;;5.05;47.59
65376;BME280;51976;47.332;9.404;2023-03-15T10:54:33;92765.00;;;4.97;46.36
65376;BME280;51976;47.332;9.404;2023-03-15T10:57:15;92745.69;;;4.90;46.81
65376;BME280;51976;47.332;9.404;2023-03-15T10:59:58;92765.69;;;5.36;45.23
65376;BME280;51976;47.332;9.404;2023-03-15T11:02:25;92773.16;;;5.34;46.37
65376;BME280;51976;47.332;9.404;2023-03-15T11:05:03;92772.06;;;5.08;46.30
65376;BME280;51976;47.332;9.404;2023-03-15T11:07:28;92763.53;;;4.84;46.91
65376;BME280;51976;47.332;9.404;2023-03-15T11:10:00;92763.13;;;4.75;47.88
65376;BME280;51976;47.332;9.404;2023-03-15T11:12:28;92764.13;;;5.40;47.40
65376;BME280;51976;47.332;9.404;2023-03-15T11:15:01;92754.47;;;5.93;46.64
65376;BME280;51976;47.332;9.404;2023-03-15T11:17:30;92754.50;;;6.40;46.12
65376;BME280;51976;47.332;9.404;2023-03-15T11:20:06;92752.75;;;6.61;44.69
65376;BME280;51976;47.332;9.404;2023-03-15T11:22:43;92734.25;;;6.12;44.63
65376;BME280;51976;47.332;9.404;2023-03-15T11:25:12;92742.78;;;6.09;45.15
65376;BME280;51976;47.332;9.404;2023-03-15T11:27:39;92735.69;;;6.30;44.54
65376;BME280;51976;47.332;9.404;2023-03-15T11:30:11;92732.72;;;6.68;43.79
65376;BME280;51976;47.332;9.404;2023-03-15T11:32:37;92741.34;;;6.86;43.24
65376;BME280;51976;47.332;9.404;2023-03-15T11:35:07;92741.38;;;6.38;43.88
65376;BME280;51976;47.332;9.404;2023-03-15T11:37:53;92734.63;;;6.78;43.23
65376;BME280;51976;47.332;9.404;2023-03-15T11:40:29;92723.22;;;6.45;44.16
65376;BME280;51976;47.332;9.404;2023-03-15T11:43:00;92731.94;;;6.73;43.66
65376;BME280;51976;47.332;9.404;2023-03-15T11:45:37;92735.16;;;6.75;43.92
65376;BME280;51976;47.332;9.404;2023-03-15T11:48:25;92727.84;;;6.60;43.64
65376;BME280;51976;47.332;9.404;2023-03-15T11:50:53;92715.03;;;6.67;44.13
65376;BME280;51976;47.332;9.404;2023-03-15T11:53:20;92723.59;;;6.69;42.82
65376;BME280;51976;47.332;9.404;2023-03-15T11:55:49;92723.41;;;6.86;42.13
65376;BME280;51976;47.332;9.404;2023-03-15T11:58:30;92727.13;;;6.75;41.83
65376;BME280;51976;47.332;9.404;2023-03-15T12:01:00;92724.47;;;6.85;41.71
65376;BME280;51976;47.332;9.404;2023-03-15T12:03:42;92720.28;;;7.14;40.47
65376;BME280;51976;47.332;9.404;2023-03-15T12:06:36;92723.50;;;6.49;40.03
65376;BME280;51976;47.332;9.404;2023-03-15T12:09:02;92714.03;;;6.31;40.33
65376;BME280;51976;47.332;9.404;2023-03-15T12:11:47;92704.63;;;6.76;40.07
65376;BME280;51976;47.332;9.404;2023-03-15T12:14:29;92697.66;;;6.75;40.39
65376;BME280;51976;47.332;9.404;2023-03-15T12:17:35;92708.25;;;6.50;40.84
65376;BME280;51976;47.332;9.404;2023-03-15T12:20:10;92691.91;;;7.39;40.79
65376;BME280;51976;47.332;9.404;2023-03-15T12:22:42;92701.28;;;7.26;39.95
65376;BME280;51976;47.332;9.404;2023-03-15T12:25:19;92704.09;;;6.79;40.46
65376;BME280;51976;47.332;9.404;2023-03-15T12:27:49;92701.28;;;6.49;40.73
65376;BME280;51976;47.332;9.404;2023-03-15T12:30:20;92704.16;;;6.37;40.75
65376;BME280;51976;47.332;9.404;2023-03-15T12:32:51;92713.28;;;6.41;40.29
65376;BME280;51976;47.332;9.404;2023-03-15T12:35:19;92708.88;;;6.72;40.29
65376;BME280;51976;47.332;9.404;2023-03-15T12:37:47;92702.28;;;7.00;40.08
65376;BME280;51976;47.332;9.404;2023-03-15T12:40:37;92703.97;;;7.31;40.50
65376;BME280;51976;47.332;9.404;2023-03-15T12:43:05;92704.09;;;6.84;39.29
65376;BME280;51976;47.332;9.404;2023-03-15T12:45:34;92682.09;;;6.72;38.64
65376;BME280;51976;47.332;9.404;2023-03-15T12:48:20;92705.22;;;6.93;39.68
65376;BME280;51976;47.332;9.404;2023-03-15T12:50:53;92705.88;;;7.36;38.13
65376;BME280;51976;47.332;9.404;2023-03-15T12:53:37;92711.25;;;7.51;38.66
65376;BME280;51976;47.332;9.404;2023-03-15T12:56:27;92695.06;;;7.05;37.77
65376;BME280;51976;47.332;9.404;2023-03-15T12:58:57;92696.69;;;7.06;38.15
65376;BME280;51976;47.332;9.404;2023-03-15T13:01:26;92695.91;;;7.11;39.01
65376;BME280;51976;47.332;9.404;2023-03-15T13:03:56;92700.47;;;7.26;38.95
65376;BME280;51976;47.332;9.404;2023-03-15T13:06:44;92693.09;;;6.75;38.03
65376;BME280;51976;47.332;9.404;2023-03-15T13:09:31;92700.34;;;6.85;37.90
65376;BME280;51976;47.332;9.404;2023-03-15T13:12:10;92701.00;;;7.23;38.30
65376;BME280;51976;47.332;9.404;2023-03-15T13:15:18;92694.06;;;7.52;38.51
65376;BME280;51976;47.332;9.404;2023-03-15T13:17:55;92691.31;;;7.06;40.08
65376;BME280;51976;47.332;9.404;2023-03-15T13:20:56;92692.16;;;7.22;39.48